CDT,Max TemperatureF,Mean TemperatureF,Min TemperatureF,Max Dew PointF,MeanDew PointF,Min DewpointF,Max Humidity, Mean Humidity, Min Humidity, Max Sea Level PressureIn, Mean Sea Level PressureIn, Min Sea Level PressureIn, Max VisibilityMiles, Mean VisibilityMiles, Min VisibilityMiles, Max Wind SpeedMPH, Mean Wind SpeedMPH, Max Gust SpeedMPH,PrecipitationIn, CloudCover, Events, WindDirDegrees
2013-7-1,86,68,53,57,52,48,90,59,29,30.19,30.16,30.14,10,9,5,15,6,23,0.00,1,,14
2013-7-2,84,70,57,60,55,50,93,60,33,30.15,30.12,30.06,10,9,4,14,5,23,0.00,2,Rain-Thunderstorm,22
2013-7-3,84,70,55,58,55,51,93,60,33,30.07,30.01,29.94,10,9,6,10,2,,0.00,1,,173
2013-7-4,88,74,61,57,55,53,83,52,30,29.96,29.92,29.87,10,10,10,22,10,29,0.00,0,,186
2013-7-5,90,78,66,62,59,55,68,54,36,29.89,29.86,29.82,10,10,9,21,12,31,0.00,3,Rain,177
2013-7-6,93,81,71,67,63,59,68,56,39,29.86,29.82,29.78,10,10,9,17,12,25,0.00,1,,173
2013-7-7,91,80,69,71,66,63,84,65,46,29.94,29.85,29.83,10,10,7,15,7,25,0.02,1,Rain-Thunderstorm,207
2013-7-8,93,80,69,70,68,65,93,70,41,29.98,29.94,29.90,10,10,6,9,4,,0.00,1,Rain-Thunderstorm,62
2013-7-9,91,80,68,72,68,64,93,73,48,30.00,29.91,29.85,10,9,4,22,10,33,0.07,2,Rain-Thunderstorm,287
2013-7-10,82,72,62,66,56,50,87,62,34,30.11,30.06,29.98,10,10,9,14,8,20,0.00,0,,4
2013-7-11,87,72,57,58,56,55,90,57,33,30.11,30.05,29.97,10,9,5,18,7,25,0.00,1,,147
2013-7-12,91,78,66,63,60,57,73,54,35,30.00,29.95,29.88,10,10,10,24,15,32,0.00,0,,165
2013-7-13,86,76,69,68,64,60,78,69,55,30.03,29.96,29.93,10,9,2,22,12,26,0.37,3,Rain-Thunderstorm,156
2013-7-14,89,78,69,65,61,57,81,61,37,30.17,30.09,30.01,10,10,10,14,11,20,0.01,1,,156
2013-7-15,90,76,63,68,63,59,90,66,40,30.23,30.18,30.13,10,10,5,16,5,24,0.00,2,,150
2013-7-16,91,80,70,69,67,64,93,67,42,30.24,30.21,30.17,10,10,5,12,7,,0.00,0,,198
2013-7-17,95,82,69,70,68,65,87,64,38,30.28,30.22,30.14,10,10,6,13,4,17,0.00,0,,205
2013-7-18,93,83,73,69,68,65,85,62,41,30.14,30.00,29.85,10,10,10,20,10,30,0.00,0,,209
2013-7-19,88,77,63,69,63,56,90,58,35,29.94,29.88,29.80,10,10,10,17,11,25,0.07,1,Rain-Thunderstorm,299
2013-7-20,84,70,55,65,59,54,93,67,41,29.99,29.93,29.88,10,10,7,18,3,22,0.00,0,,286
2013-7-21,88,76,64,68,64,59,90,69,44,29.93,29.84,29.78,10,10,10,14,4,17,0.00,2,,159
2013-7-22,91,78,66,72,66,59,93,70,45,29.88,29.77,29.71,10,9,4,17,9,31,0.00,2,,258
2013-7-23,78,67,57,58,55,50,90,68,41,30.03,29.98,29.88,10,10,10,13,7,20,0.00,0,,10
2013-7-24,82,66,51,59,55,49,93,66,39,30.09,30.05,30.01,10,10,10,12,2,18,0.00,2,,290
2013-7-25,88,72,57,66,61,55,93,69,46,30.03,29.98,29.91,10,10,10,15,6,17,0.00,1,Thunderstorm,220
2013-7-26,73,62,51,63,52,46,94,67,44,30.12,30.06,29.96,10,10,6,22,11,29,0.00,3,,332
2013-7-27,72,58,44,47,44,41,93,63,34,30.13,30.09,30.03,10,10,10,17,7,22,0.00,2,,324
2013-7-28,77,58,41,50,45,39,93,61,32,30.09,30.05,30.03,10,10,10,16,7,26,0.00,0,,323
2013-7-29,78,62,45,56,51,42,90,63,40,30.11,30.08,30.06,10,10,10,15,5,25,0.00,4,,154
2013-7-30,75,68,62,64,61,56,94,81,64,30.11,30.08,30.06,10,8,2,7,3,,0.00,7,,92
2013-7-31,84,68,53,63,57,52,100,78,39,30.13,30.10,30.04,10,7,0,12,3,16,0.00,1,Fog,305